sensor_id;sensor_type;location;lat;lon;timestamp;pressure;altitude;pressure_sealevel;temperature;humidity
69624;BME280;56843;52.020;5.670;2023-02-14T00:00:25;103285.78;;;6.63;66.93
69624;BME280;56843;52.020;5.670;2023-02-14T00:01:56;103298.25;;;6.63;67.08
69624;BME280;56843;52.020;5.670;2023-02-14T00:03:26;103296.84;;;6.60;67.02
69624;BME280;56843;52.020;5.670;2023-02-14T00:04:57;103292.59;;;6.59;66.90
69624;BME280;56843;52.020;5.670;2023-02-14T00:06:27;103298.38;;;6.56;67.04
69624;BME280;56843;52.020;5.670;2023-02-14T00:07:58;103285.56;;;6.53;67.07
69624;BME280;56843;52.020;5.670;2023-02-14T00:09:29;103293.75;;;6.52;67.00
69624;BME280;56843;52.020;5.670;2023-02-14T00:11:00;103295.03;;;6.49;67.02
69624;BME280;56843;52.020;5.670;2023-02-14T00:12:31;103283.84;;;6.47;66.84
69624;BME280;56843;52.020;5.670;2023-02-14T00:14:02;103284.91;;;6.46;67.14
69624;BME280;56843;52.020;5.670;2023-02-14T00:15:51;103287.19;;;6.43;66.98
69624;BME280;56843;52.020;5.670;2023-02-14T00:17:21;103289.84;;;6.43;66.98
69624;BME280;56843;52.020;5.670;2023-02-14T00:18:52;103294.34;;;6.42;67.08
69624;BME280;56843;52.020;5.670;2023-02-14T00:20:34;103285.25;;;6.38;67.24
69624;BME280;56843;52.020;5.670;2023-02-14T00:22:06;103293.44;;;6.37;67.10
69624;BME280;56843;52.020;5.670;2023-02-14T00:23:36;103289.16;;;6.36;67.08
69624;BME280;56843;52.020;5.670;2023-02-14T00:25:07;103285.72;;;6.35;67.06
69624;BME280;56843;52.020;5.670;2023-02-14T00:26:38;103280.63;;;6.34;67.08
69624;BME280;56843;52.020;5.670;2023-02-14T00:28:08;103288.84;;;6.32;67.03
69624;BME280;56843;52.020;5.670;2023-02-14T00:29:39;103286.66;;;6.29;67.05
69624;BME280;56843;52.020;5.670;2023-02-14T00:31:09;103287.91;;;6.27;67.31
69624;BME280;56843;52.020;5.670;2023-02-14T00:32:41;103282.84;;;6.25;67.20
69624;BME280;56843;52.020;5.670;2023-02-14T00:34:14;103283.09;;;6.24;67.29
69624;BME280;56843;52.020;5.670;2023-02-14T00:35:44;103288.59;;;6.22;67.13
69624;BME280;56843;52.020;5.670;2023-02-14T00:37:15;103290.47;;;6.22;67.28
69624;BME280;56843;52.020;5.670;2023-02-14T00:38:45;103288.03;;;6.20;67.21
69624;BME280;56843;52.020;5.670;2023-02-14T00:40:16;103284.81;;;6.18;67.28
69624;BME280;56843;52.020;5.670;2023-02-14T00:41:46;103284.25;;;6.16;67.30
69624;BME280;56843;52.020;5.670;2023-02-14T00:43:20;103286.06;;;6.16;67.16
69624;BME280;56843;52.020;5.670;2023-02-14T00:44:50;103287.38;;;6.13;67.28
69624;BME280;56843;52.020;5.670;2023-02-14T00:46:24;103293.72;;;6.12;67.32
69624;BME280;56843;52.020;5.670;2023-02-14T00:47:54;103281.47;;;6.11;67.15
69624;BME280;56843;52.020;5.670;2023-02-14T00:49:25;103287.81;;;6.10;67.30
69624;BME280;56843;52.020;5.670;2023-02-14T00:50:55;103285.41;;;6.09;67.37
69624;BME280;56843;52.020;5.670;2023-02-14T00:52:26;103284.59;;;6.08;67.55
69624;BME280;56843;52.020;5.670;2023-02-14T00:53:56;103280.56;;;6.06;67.38
69624;BME280;56843;52.020;5.670;2023-02-14T00:55:27;103281.59;;;6.05;67.27
69624;BME280;56843;52.020;5.670;2023-02-14T00:56:58;103282.63;;;6.04;67.32
69624;BME280;56843;52.020;5.670;2023-02-14T00:58:29;103274.94;;;6.02;67.27
69624;BME280;56843;52.020;5.670;2023-02-14T00:59:59;103277.56;;;6.02;67.09
69624;BME280;56843;52.020;5.670;2023-02-14T01:01:30;103280.44;;;6.01;67.04
69624;BME280;56843;52.020;5.670;2023-02-14T01:03:01;103274.56;;;5.99;67.21
69624;BME280;56843;52.020;5.670;2023-02-14T01:04:32;103284.34;;;5.98;67.29
69624;BME280;56843;52.020;5.670;2023-02-14T01:06:04;103284.59;;;5.97;67.44
69624;BME280;56843;52.020;5.670;2023-02-14T01:07:35;103284.03;;;5.94;67.44
69624;BME280;56843;52.020;5.670;2023-02-14T01:09:05;103284.03;;;5.94;67.34
69624;BME280;56843;52.020;5.670;2023-02-14T01:10:36;103288.50;;;5.94;67.36
69624;BME280;56843;52.020;5.670;2023-02-14T01:12:07;103294.31;;;5.91;67.30
69624;BME280;56843;52.020;5.670;2023-02-14T01:13:38;103289.78;;;5.91;67.25
69624;BME280;56843;52.020;5.670;2023-02-14T01:15:09;103283.69;;;5.91;67.27
69624;BME280;56843;52.020;5.670;2023-02-14T01:16:39;103275.94;;;5.89;67.27
69624;BME280;56843;52.020;5.670;2023-02-14T01:18:10;103277.78;;;5.89;67.34
69624;BME280;56843;52.020;5.670;2023-02-14T01:19:40;103274.34;;;5.88;67.28
69624;BME280;56843;52.020;5.670;2023-02-14T01:21:21;103275.38;;;5.87;67.36
69624;BME280;56843;52.020;5.670;2023-02-14T01:22:52;103271.56;;;5.83;67.33
69624;BME280;56843;52.020;5.670;2023-02-14T01:24:24;103278.94;;;5.81;67.32
69624;BME280;56843;52.020;5.670;2023-02-14T01:25:55;103266.72;;;5.80;67.51
69624;BME280;56843;52.020;5.670;2023-02-14T01:27:26;103269.59;;;5.79;67.38
69624;BME280;56843;52.020;5.670;2023-02-14T01:28:57;103270.88;;;5.76;67.48
69624;BME280;56843;52.020;5.670;2023-02-14T01:30:28;103275.34;;;5.76;67.54
69624;BME280;56843;52.020;5.670;2023-02-14T01:31:58;103257.84;;;5.75;67.47
69624;BME280;56843;52.020;5.670;2023-02-14T01:33:29;103266.81;;;5.74;67.42
69624;BME280;56843;52.020;5.670;2023-02-14T01:34:59;103268.91;;;5.72;67.46
69624;BME280;56843;52.020;5.670;2023-02-14T01:36:36;103275.25;;;5.71;67.50
69624;BME280;56843;52.020;5.670;2023-02-14T01:38:07;103267.75;;;5.68;67.76
69624;BME280;56843;52.020;5.670;2023-02-14T01:39:37;103264.53;;;5.66;67.43
69624;BME280;56843;52.020;5.670;2023-02-14T01:41:08;103274.31;;;5.65;67.35
69624;BME280;56843;52.020;5.670;2023-02-14T01:42:38;103266.59;;;5.64;67.50
69624;BME280;56843;52.020;5.670;2023-02-14T01:45:48;103265.44;;;5.60;67.58
69624;BME280;56843;52.020;5.670;2023-02-14T01:47:19;103272.81;;;5.58;67.48
69624;BME280;56843;52.020;5.670;2023-02-14T01:48:54;103260.59;;;5.57;67.46
69624;BME280;56843;52.020;5.670;2023-02-14T01:50:29;103258.19;;;5.55;67.55
69624;BME280;56843;52.020;5.670;2023-02-14T01:52:08;103263.50;;;5.55;67.55
69624;BME280;56843;52.020;5.670;2023-02-14T01:53:39;103270.03;;;5.53;67.70
69624;BME280;56843;52.020;5.670;2023-02-14T01:55:14;103262.34;;;5.51;67.49
69624;BME280;56843;52.020;5.670;2023-02-14T01:56:50;103269.22;;;5.52;67.50
69624;BME280;56843;52.020;5.670;2023-02-14T01:58:24;103271.53;;;5.49;67.48
69624;BME280;56843;52.020;5.670;2023-02-14T01:59:57;103274.19;;;5.49;67.65
69624;BME280;56843;52.020;5.670;2023-02-14T02:02:08;103269.78;;;5.43;67.75
69624;BME280;56843;52.020;5.670;2023-02-14T02:03:53;103266.13;;;5.44;67.74
69624;BME280;56843;52.020;5.670;2023-02-14T02:05:25;103269.00;;;5.42;67.62
69624;BME280;56843;52.020;5.670;2023-02-14T02:07:01;103266.34;;;5.42;67.70
69624;BME280;56843;52.020;5.670;2023-02-14T02:08:36;103264.72;;;5.41;67.52
69624;BME280;56843;52.020;5.670;2023-02-14T02:10:10;103263.91;;;5.41;67.68
69624;BME280;56843;52.020;5.670;2023-02-14T02:11:41;103258.84;;;5.39;67.55
69624;BME280;56843;52.020;5.670;2023-02-14T02:13:16;103257.81;;;5.40;67.78
69624;BME280;56843;52.020;5.670;2023-02-14T02:14:51;103257.81;;;5.40;67.45
69624;BME280;56843;52.020;5.670;2023-02-14T02:27:23;103243.06;;;5.33;67.55
69624;BME280;56843;52.020;5.670;2023-02-14T02:29:25;103247.41;;;5.27;67.67
69624;BME280;56843;52.020;5.670;2023-02-14T02:41:46;103242.81;;;5.23;67.63
69624;BME280;56843;52.020;5.670;2023-02-14T02:49:31;103243.13;;;5.14;67.78
69624;BME280;56843;52.020;5.670;2023-02-14T02:51:50;103247.41;;;5.15;67.74
69624;BME280;56843;52.020;5.670;2023-02-14T02:53:46;103242.97;;;5.09;67.81
69624;BME280;56843;52.020;5.670;2023-02-14T02:57:28;103250.94;;;5.09;67.69
69624;BME280;56843;52.020;5.670;2023-02-14T02:59:09;103248.88;;;5.11;67.82
69624;BME280;56843;52.020;5.670;2023-02-14T03:00:58;103244.84;;;5.09;67.79
69624;BME280;56843;52.020;5.670;2023-02-14T03:02:33;103239.31;;;5.10;67.58
69624;BME280;56843;52.020;5.670;2023-02-14T03:04:27;103242.19;;;5.09;67.84
69624;BME280;56843;52.020;5.670;2023-02-14T03:06:16;103245.88;;;5.08;67.82
69624;BME280;56843;52.020;5.670;2023-02-14T03:07:49;103236.91;;;5.09;67.62
69624;BME280;56843;52.020;5.670;2023-02-14T03:10:51;103241.16;;;5.10;67.63
69624;BME280;56843;52.020;5.670;2023-02-14T03:14:38;103233.19;;;5.10;67.59
69624;BME280;56843;52.020;5.670;2023-02-14T03:19:39;103231.22;;;5.05;67.92
69624;BME280;56843;52.020;5.670;2023-02-14T03:23:25;103230.41;;;5.05;67.78
69624;BME280;56843;52.020;5.670;2023-02-14T03:27:24;103218.47;;;5.02;67.86
69624;BME280;56843;52.020;5.670;2023-02-14T03:33:59;103225.59;;;5.02;67.73
69624;BME280;56843;52.020;5.670;2023-02-14T03:35:42;103234.34;;;5.02;67.85
69624;BME280;56843;52.020;5.670;2023-02-14T03:37:23;103233.53;;;5.02;67.82
69624;BME280;56843;52.020;5.670;2023-02-14T03:39:07;103221.09;;;5.02;67.82
69624;BME280;56843;52.020;5.670;2023-02-14T03:41:09;103224.78;;;5.01;67.94
69624;BME280;56843;52.020;5.670;2023-02-14T03:43:35;103226.25;;;4.97;67.88
69624;BME280;56843;52.020;5.670;2023-02-14T03:44:48;103229.34;;;4.94;67.96
69624;BME280;56843;52.020;5.670;2023-02-14T03:46:33;103228.91;;;4.97;67.89
69624;BME280;56843;52.020;5.670;2023-02-14T03:48:08;103228.53;;;4.94;67.96
69624;BME280;56843;52.020;5.670;2023-02-14T03:49:43;103234.44;;;4.96;67.99
69624;BME280;56843;52.020;5.670;2023-02-14T03:51:18;103223.84;;;4.96;67.78
69624;BME280;56843;52.020;5.670;2023-02-14T03:52:51;103223.03;;;4.95;68.00
69624;BME280;56843;52.020;5.670;2023-02-14T03:54:24;103226.50;;;4.96;68.15
69624;BME280;56843;52.020;5.670;2023-02-14T03:56:03;103215.09;;;4.95;68.00
69624;BME280;56843;52.020;5.670;2023-02-14T03:57:54;103219.34;;;4.96;68.01
69624;BME280;56843;52.020;5.670;2023-02-14T03:59:28;103217.94;;;4.94;68.29
69624;BME280;56843;52.020;5.670;2023-02-14T04:01:05;103220.38;;;4.95;68.00
69624;BME280;56843;52.020;5.670;2023-02-14T04:02:41;103224.06;;;4.94;68.18
69624;BME280;56843;52.020;5.670;2023-02-14T04:04:17;103222.00;;;4.96;68.10
69624;BME280;56843;52.020;5.670;2023-02-14T04:05:49;103223.63;;;4.97;68.13
69624;BME280;56843;52.020;5.670;2023-02-14T04:07:22;103222.81;;;4.97;68.02
69624;BME280;56843;52.020;5.670;2023-02-14T04:08:53;103226.03;;;4.99;68.05
69624;BME280;56843;52.020;5.670;2023-02-14T04:10:24;103223.19;;;5.00;67.99
69624;BME280;56843;52.020;5.670;2023-02-14T04:11:55;103227.66;;;5.00;68.33
69624;BME280;56843;52.020;5.670;2023-02-14T04:13:26;103226.84;;;4.99;68.24
69624;BME280;56843;52.020;5.670;2023-02-14T04:14:57;103225.22;;;4.98;68.19
69624;BME280;56843;52.020;5.670;2023-02-14T04:16:27;103220.72;;;4.99;68.48
69624;BME280;56843;52.020;5.670;2023-02-14T04:17:58;103224.78;;;5.01;68.17
69624;BME280;56843;52.020;5.670;2023-02-14T04:19:47;103219.91;;;4.98;68.16
69624;BME280;56843;52.020;5.670;2023-02-14T04:21:18;103214.63;;;4.98;68.40
69624;BME280;56843;52.020;5.670;2023-02-14T04:22:49;103224.78;;;5.01;68.40
69624;BME280;56843;52.020;5.670;2023-02-14T04:24:20;103226.41;;;5.02;68.43
69624;BME280;56843;52.020;5.670;2023-02-14T04:25:51;103227.19;;;5.03;68.26
69624;BME280;56843;52.020;5.670;2023-02-14T04:27:22;103219.81;;;5.05;68.43
69624;BME280;56843;52.020;5.670;2023-02-14T04:28:52;103231.81;;;5.07;68.48
69624;BME280;56843;52.020;5.670;2023-02-14T04:30:23;103228.94;;;5.09;68.43
69624;BME280;56843;52.020;5.670;2023-02-14T04:31:53;103234.00;;;5.10;68.39
69624;BME280;56843;52.020;5.670;2023-02-14T04:33:24;103231.94;;;5.12;68.41
69624;BME280;56843;52.020;5.670;2023-02-14T04:34:54;103231.13;;;5.12;68.38
69624;BME280;56843;52.020;5.670;2023-02-14T04:36:25;103234.59;;;5.12;68.44
69624;BME280;56843;52.020;5.670;2023-02-14T04:37:55;103232.75;;;5.13;68.54
69624;BME280;56843;52.020;5.670;2023-02-14T04:39:26;103230.94;;;5.13;68.40
69624;BME280;56843;52.020;5.670;2023-02-14T04:40:57;103229.06;;;5.14;68.48
69624;BME280;56843;52.020;5.670;2023-02-14T04:42:27;103236.22;;;5.13;68.46
69624;BME280;56843;52.020;5.670;2023-02-14T04:43:58;103236.22;;;5.13;68.42
69624;BME280;56843;52.020;5.670;2023-02-14T04:45:28;103224.00;;;5.12;68.53
69624;BME280;56843;52.020;5.670;2023-02-14T04:46:59;103231.38;;;5.10;68.56
69624;BME280;56843;52.020;5.670;2023-02-14T04:48:30;103223.41;;;5.10;68.55
69624;BME280;56843;52.020;5.670;2023-02-14T04:50:00;103223.66;;;5.09;68.59
69624;BME280;56843;52.020;5.670;2023-02-14T04:51:31;103227.09;;;5.09;68.73
69624;BME280;56843;52.020;5.670;2023-02-14T04:53:01;103226.31;;;5.09;68.57
69624;BME280;56843;52.020;5.670;2023-02-14T04:54:32;103225.25;;;5.10;68.59
69624;BME280;56843;52.020;5.670;2023-02-14T04:56:03;103228.94;;;5.09;68.64
69624;BME280;56843;52.020;5.670;2023-02-14T04:57:33;103225.50;;;5.08;68.75
69624;BME280;56843;52.020;5.670;2023-02-14T04:59:04;103223.09;;;5.07;68.51
69624;BME280;56843;52.020;5.670;2023-02-14T05:00:34;103221.22;;;5.07;68.51
69624;BME280;56843;52.020;5.670;2023-02-14T05:02:05;103219.81;;;5.05;68.55
69624;BME280;56843;52.020;5.670;2023-02-14T05:03:36;103212.09;;;5.03;68.65
69624;BME280;56843;52.020;5.670;2023-02-14T05:05:06;103214.75;;;5.03;68.79
69624;BME280;56843;52.020;5.670;2023-02-14T05:06:37;103211.28;;;5.03;68.85
69624;BME280;56843;52.020;5.670;2023-02-14T05:08:07;103210.72;;;5.01;68.63
69624;BME280;56843;52.020;5.670;2023-02-14T05:09:38;103214.19;;;5.01;68.75
69624;BME280;56843;52.020;5.670;2023-02-14T05:11:08;103203.00;;;4.99;68.81
69624;BME280;56843;52.020;5.670;2023-02-14T05:12:39;103209.94;;;5.00;68.67
69624;BME280;56843;52.020;5.670;2023-02-14T05:14:09;103206.69;;;4.98;68.68
69624;BME280;56843;52.020;5.670;2023-02-14T05:15:40;103205.91;;;4.98;68.66
69624;BME280;56843;52.020;5.670;2023-02-14T05:17:10;103206.34;;;4.95;68.84
69624;BME280;56843;52.020;5.670;2023-02-14T05:18:41;103204.72;;;4.94;68.82
69624;BME280;56843;52.020;5.670;2023-02-14T05:20:11;103204.94;;;4.92;69.02
69624;BME280;56843;52.020;5.670;2023-02-14T05:21:42;103203.09;;;4.93;68.71
69624;BME280;56843;52.020;5.670;2023-02-14T05:23:12;103195.97;;;4.93;68.77
69624;BME280;56843;52.020;5.670;2023-02-14T05:24:43;103200.47;;;4.93;68.75
69624;BME280;56843;52.020;5.670;2023-02-14T05:26:13;103201.47;;;4.92;68.83
69624;BME280;56843;52.020;5.670;2023-02-14T05:27:44;103193.53;;;4.92;68.62
69624;BME280;56843;52.020;5.670;2023-02-14T05:29:14;103190.31;;;4.90;68.89
69624;BME280;56843;52.020;5.670;2023-02-14T05:30:45;103197.22;;;4.91;68.78
69624;BME280;56843;52.020;5.670;2023-02-14T05:32:16;103198.06;;;4.91;68.96
69624;BME280;56843;52.020;5.670;2023-02-14T05:33:46;103195.41;;;4.91;68.90
69624;BME280;56843;52.020;5.670;2023-02-14T05:35:17;103206.00;;;4.91;68.82
69624;BME280;56843;52.020;5.670;2023-02-14T05:36:47;103199.31;;;4.89;68.75
69624;BME280;56843;52.020;5.670;2023-02-14T05:38:18;103210.72;;;4.89;68.81
69624;BME280;56843;52.020;5.670;2023-02-14T05:39:48;103207.25;;;4.89;68.87
69624;BME280;56843;52.020;5.670;2023-02-14T05:41:18;103202.97;;;4.88;68.96
69624;BME280;56843;52.020;5.670;2023-02-14T05:42:51;103199.31;;;4.89;69.04
69624;BME280;56843;52.020;5.670;2023-02-14T05:44:21;103197.69;;;4.88;68.89
69624;BME280;56843;52.020;5.670;2023-02-14T05:45:52;103201.13;;;4.88;68.82
69624;BME280;56843;52.020;5.670;2023-02-14T05:47:23;103208.06;;;4.89;68.74
69624;BME280;56843;52.020;5.670;2023-02-14T05:48:54;103201.94;;;4.89;68.93
69624;BME280;56843;52.020;5.670;2023-02-14T05:50:24;103206.44;;;4.88;68.79
69624;BME280;56843;52.020;5.670;2023-02-14T05:51:57;103208.63;;;4.91;68.78
69624;BME280;56843;52.020;5.670;2023-02-14T05:53:27;103201.28;;;4.93;68.89
69624;BME280;56843;52.020;5.670;2023-02-14T05:54:58;103210.00;;;4.94;68.91
69624;BME280;56843;52.020;5.670;2023-02-14T05:56:28;103202.28;;;4.92;68.69
69624;BME280;56843;52.020;5.670;2023-02-14T05:57:59;103207.59;;;4.92;68.98
69624;BME280;56843;52.020;5.670;2023-02-14T05:59:29;103204.13;;;4.92;68.99
69624;BME280;56843;52.020;5.670;2023-02-14T06:01:00;103204.72;;;4.94;68.97
69624;BME280;56843;52.020;5.670;2023-02-14T06:02:31;103206.56;;;4.93;68.84
69624;BME280;56843;52.020;5.670;2023-02-14T06:04:01;103209.41;;;4.92;68.85
69624;BME280;56843;52.020;5.670;2023-02-14T06:05:32;103211.72;;;4.88;69.06
69624;BME280;56843;52.020;5.670;2023-02-14T06:07:02;103204.22;;;4.85;68.99
69624;BME280;56843;52.020;5.670;2023-02-14T06:08:33;103208.94;;;4.83;69.24
69624;BME280;56843;52.020;5.670;2023-02-14T06:10:03;103209.84;;;4.77;69.25
69624;BME280;56843;52.020;5.670;2023-02-14T06:11:34;103202.56;;;4.73;69.60
69624;BME280;56843;52.020;5.670;2023-02-14T06:13:04;103212.59;;;4.71;69.69
69624;BME280;56843;52.020;5.670;2023-02-14T06:14:39;103209.13;;;4.70;69.64
69624;BME280;56843;52.020;5.670;2023-02-14T06:16:12;103212.59;;;4.71;69.70
69624;BME280;56843;52.020;5.670;2023-02-14T06:17:42;103212.06;;;4.80;69.59
69624;BME280;56843;52.020;5.670;2023-02-14T06:19:13;103205.22;;;5.02;69.39
69624;BME280;56843;52.020;5.670;2023-02-14T06:20:43;103207.44;;;5.29;68.90
69624;BME280;56843;52.020;5.670;2023-02-14T06:22:14;103207.00;;;5.55;68.39
69624;BME280;56843;52.020;5.670;2023-02-14T06:23:45;103208.88;;;5.77;68.15
69624;BME280;56843;52.020;5.670;2023-02-14T06:25:16;103202.72;;;6.00;67.84
69624;BME280;56843;52.020;5.670;2023-02-14T06:26:46;103210.06;;;6.21;67.58
69624;BME280;56843;52.020;5.670;2023-02-14T06:28:16;103208.03;;;6.40;67.59
69624;BME280;56843;52.020;5.670;2023-02-14T06:29:47;103210.31;;;6.59;67.37
69624;BME280;56843;52.020;5.670;2023-02-14T06:31:18;103207.25;;;6.79;67.08
69624;BME280;56843;52.020;5.670;2023-02-14T06:32:48;103204.38;;;6.97;66.79
69624;BME280;56843;52.020;5.670;2023-02-14T06:34:19;103207.84;;;7.14;66.63
69624;BME280;56843;52.020;5.670;2023-02-14T06:35:52;103203.34;;;7.31;66.51
69624;BME280;56843;52.020;5.670;2023-02-14T06:37:23;103199.06;;;7.47;66.39
69624;BME280;56843;52.020;5.670;2023-02-14T06:38:53;103198.72;;;7.60;66.15
69624;BME280;56843;52.020;5.670;2023-02-14T06:40:23;103206.38;;;7.73;66.15
69624;BME280;56843;52.020;5.670;2023-02-14T06:41:54;103210.56;;;7.86;66.09
69624;BME280;56843;52.020;5.670;2023-02-14T06:43:24;103205.34;;;7.96;66.01
69624;BME280;56843;52.020;5.670;2023-02-14T06:44:55;103211.59;;;8.06;65.87
69624;BME280;56843;52.020;5.670;2023-02-14T06:46:25;103208.28;;;8.16;65.86
69624;BME280;56843;52.020;5.670;2023-02-14T06:47:56;103211.31;;;8.25;65.82
69624;BME280;56843;52.020;5.670;2023-02-14T06:49:26;103213.28;;;8.34;65.83
69624;BME280;56843;52.020;5.670;2023-02-14T06:50:57;103205.91;;;8.41;65.69
69624;BME280;56843;52.020;5.670;2023-02-14T06:52:27;103219.84;;;8.48;65.62
69624;BME280;56843;52.020;5.670;2023-02-14T06:53:58;103217.78;;;8.55;65.83
69624;BME280;56843;52.020;5.670;2023-02-14T06:55:28;103218.69;;;8.61;65.76
69624;BME280;56843;52.020;5.670;2023-02-14T06:56:58;103224.59;;;8.68;65.56
69624;BME280;56843;52.020;5.670;2023-02-14T06:58:29;103230.81;;;8.73;65.78
69624;BME280;56843;52.020;5.670;2023-02-14T07:00:00;103224.47;;;8.79;65.70
69624;BME280;56843;52.020;5.670;2023-02-14T07:01:31;103230.41;;;8.86;65.68
69624;BME280;56843;52.020;5.670;2023-02-14T07:03:01;103229.38;;;8.93;65.62
69624;BME280;56843;52.020;5.670;2023-02-14T07:04:31;103226.28;;;9.01;65.64
69624;BME280;56843;52.020;5.670;2023-02-14T07:06:02;103230.09;;;9.10;65.44
69624;BME280;56843;52.020;5.670;2023-02-14T07:07:32;103231.47;;;9.17;65.50
69624;BME280;56843;52.020;5.670;2023-02-14T07:09:03;103231.00;;;9.25;65.18
69624;BME280;56843;52.020;5.670;2023-02-14T07:10:34;103228.94;;;9.32;65.28
69624;BME280;56843;52.020;5.670;2023-02-14T07:12:05;103227.41;;;9.41;65.36
69624;BME280;56843;52.020;5.670;2023-02-14T07:13:35;103236.00;;;9.48;65.29
69624;BME280;56843;52.020;5.670;2023-02-14T07:15:10;103232.84;;;9.56;65.12
69624;BME280;56843;52.020;5.670;2023-02-14T07:16:41;103231.31;;;9.60;64.88
69624;BME280;56843;52.020;5.670;2023-02-14T07:18:12;103230.00;;;9.68;64.68
69624;BME280;56843;52.020;5.670;2023-02-14T07:19:42;103236.97;;;9.74;64.65
69624;BME280;56843;52.020;5.670;2023-02-14T07:21:13;103236.19;;;9.79;64.65
69624;BME280;56843;52.020;5.670;2023-02-14T07:22:43;103229.84;;;9.85;64.28
69624;BME280;56843;52.020;5.670;2023-02-14T07:24:14;103234.16;;;9.91;64.49
69624;BME280;56843;52.020;5.670;2023-02-14T07:25:44;103229.09;;;9.94;64.20
69624;BME280;56843;52.020;5.670;2023-02-14T07:27:15;103237.13;;;9.99;64.37
69624;BME280;56843;52.020;5.670;2023-02-14T07:28:47;103236.34;;;10.04;63.97
69624;BME280;56843;52.020;5.670;2023-02-14T07:30:18;103240.09;;;10.08;63.93
69624;BME280;56843;52.020;5.670;2023-02-14T07:31:49;103227.84;;;10.12;63.77
69624;BME280;56843;52.020;5.670;2023-02-14T07:33:19;103223.59;;;10.16;63.79
69624;BME280;56843;52.020;5.670;2023-02-14T07:34:50;103235.63;;;10.18;63.80
69624;BME280;56843;52.020;5.670;2023-02-14T07:36:20;103227.94;;;10.22;63.62
69624;BME280;56843;52.020;5.670;2023-02-14T07:37:51;103230.88;;;10.25;63.52
69624;BME280;56843;52.020;5.670;2023-02-14T07:39:22;103231.69;;;10.26;63.68
69624;BME280;56843;52.020;5.670;2023-02-14T07:40:52;103231.16;;;10.29;63.46
69624;BME280;56843;52.020;5.670;2023-02-14T07:42:23;103235.97;;;10.32;63.21
69624;BME280;56843;52.020;5.670;2023-02-14T07:43:53;103238.94;;;10.36;63.03
69624;BME280;56843;52.020;5.670;2023-02-14T07:45:24;103238.66;;;10.37;62.75
69624;BME280;56843;52.020;5.670;2023-02-14T07:46:55;103239.75;;;10.41;63.36
69624;BME280;56843;52.020;5.670;2023-02-14T07:48:25;103244.81;;;10.43;62.73
69624;BME280;56843;52.020;5.670;2023-02-14T07:49:56;103238.16;;;10.45;62.57
69624;BME280;56843;52.020;5.670;2023-02-14T07:51:26;103235.25;;;10.47;62.55
69624;BME280;56843;52.020;5.670;2023-02-14T07:52:57;103233.09;;;10.49;62.65
69624;BME280;56843;52.020;5.670;2023-02-14T07:54:27;103220.56;;;10.49;62.30
69624;BME280;56843;52.020;5.670;2023-02-14T07:55:58;103228.03;;;10.52;62.25
69624;BME280;56843;52.020;5.670;2023-02-14T07:57:28;103236.59;;;10.54;62.18
69624;BME280;56843;52.020;5.670;2023-02-14T07:58:59;103227.50;;;10.55;62.16
69624;BME280;56843;52.020;5.670;2023-02-14T08:00:29;103228.06;;;10.57;62.22
69624;BME280;56843;52.020;5.670;2023-02-14T08:02:00;103234.75;;;10.60;62.21
69624;BME280;56843;52.020;5.670;2023-02-14T08:03:30;103229.41;;;10.60;61.94
69624;BME280;56843;52.020;5.670;2023-02-14T08:05:01;103222.16;;;10.60;61.80
69624;BME280;56843;52.020;5.670;2023-02-14T08:06:31;103219.25;;;10.62;61.86
69624;BME280;56843;52.020;5.670;2023-02-14T08:08:02;103223.00;;;10.66;61.89
69624;BME280;56843;52.020;5.670;2023-02-14T08:09:32;103224.63;;;10.67;61.77
69624;BME280;56843;52.020;5.670;2023-02-14T08:11:03;103225.16;;;10.69;61.52
69624;BME280;56843;52.020;5.670;2023-02-14T08:12:34;103228.34;;;10.71;61.51
69624;BME280;56843;52.020;5.670;2023-02-14T08:14:23;103225.69;;;10.71;61.36
69624;BME280;56843;52.020;5.670;2023-02-14T08:15:53;103227.56;;;10.75;61.68
69624;BME280;56843;52.020;5.670;2023-02-14T08:17:36;103226.75;;;10.75;61.34
69624;BME280;56843;52.020;5.670;2023-02-14T08:19:07;103227.03;;;10.78;61.32
69624;BME280;56843;52.020;5.670;2023-02-14T08:20:37;103225.69;;;10.81;61.57
69624;BME280;56843;52.020;5.670;2023-02-14T08:22:08;103223.56;;;10.83;61.53
69624;BME280;56843;52.020;5.670;2023-02-14T08:23:38;103221.41;;;10.85;61.60
69624;BME280;56843;52.020;5.670;2023-02-14T08:25:09;103221.94;;;10.87;61.53
69624;BME280;56843;52.020;5.670;2023-02-14T08:26:39;103227.06;;;10.88;61.42
69624;BME280;56843;52.020;5.670;2023-02-14T08:28:10;103226.78;;;10.90;61.29
69624;BME280;56843;52.020;5.670;2023-02-14T08:29:42;103222.78;;;10.92;61.39
69624;BME280;56843;52.020;5.670;2023-02-14T08:31:21;103225.72;;;10.96;60.86
69624;BME280;56843;52.020;5.670;2023-02-14T08:32:52;103226.53;;;10.96;61.33
69624;BME280;56843;52.020;5.670;2023-02-14T08:34:22;103225.19;;;10.99;61.05
69624;BME280;56843;52.020;5.670;2023-02-14T08:35:53;103234.56;;;11.01;61.22
69624;BME280;56843;52.020;5.670;2023-02-14T08:37:23;103226.25;;;11.03;61.03
69624;BME280;56843;52.020;5.670;2023-02-14T08:38:54;103226.78;;;11.05;61.23
69624;BME280;56843;52.020;5.670;2023-02-14T08:40:25;103231.63;;;11.08;60.94
69624;BME280;56843;52.020;5.670;2023-02-14T08:41:55;103224.13;;;11.10;60.82
69624;BME280;56843;52.020;5.670;2023-02-14T08:43:26;103230.00;;;11.12;61.04
69624;BME280;56843;52.020;5.670;2023-02-14T08:44:56;103232.16;;;11.15;60.85
69624;BME280;56843;52.020;5.670;2023-02-14T08:46:27;103223.06;;;11.16;60.89
69624;BME280;56843;52.020;5.670;2023-02-14T08:48:08;103222.53;;;11.19;60.60
69624;BME280;56843;52.020;5.670;2023-02-14T08:49:39;103221.72;;;11.19;60.60
69624;BME280;56843;52.020;5.670;2023-02-14T08:51:11;103228.13;;;11.23;60.57
69624;BME280;56843;52.020;5.670;2023-02-14T08:52:42;103223.31;;;11.25;60.76
69624;BME280;56843;52.020;5.670;2023-02-14T08:54:13;103222.25;;;11.26;60.56
69624;BME280;56843;52.020;5.670;2023-02-14T08:55:44;103220.13;;;11.28;60.67
69624;BME280;56843;52.020;5.670;2023-02-14T08:57:14;103227.63;;;11.31;60.50